Time;durP1;ratioP1;P1;durP2;ratioP2;P2;SDS_P1;SDS_P2;PMS_P1;PMS_P2;Temp;Humidity;BMP_temperature;BMP_pressure;BME280_temperature;BME280_humidity;BME280_pressure;Samples;Min_cycle;Max_cycle;Signal;HPM_P1;HPM_P2
2024/02/18 00:01:40;;;;;;;10.25;5.47;;;3.60;99.90;;;;;;5023514;28;20118;-34
2024/02/18 00:04:06;;;;;;;6.20;4.78;;;3.60;99.90;;;;;;5027534;28;20522;-35
2024/02/18 00:06:31;;;;;;;7.10;4.43;;;3.60;99.90;;;;;;5023487;28;20060;-35
2024/02/18 00:08:57;;;;;;;7.55;4.55;;;3.60;99.90;;;;;;5027748;28;20116;-34
2024/02/18 00:11:23;;;;;;;6.72;4.32;;;3.70;99.90;;;;;;5019914;28;20380;-38
2024/02/18 00:13:48;;;;;;;5.90;4.25;;;3.60;99.90;;;;;;5023824;28;20107;-35
2024/02/18 00:16:14;;;;;;;99.18;9.55;;;3.40;99.90;;;;;;5019557;28;20090;-36
2024/02/18 00:18:40;;;;;;;6.15;4.20;;;2.80;99.90;;;;;;5025258;28;20137;-34
2024/02/18 00:21:05;;;;;;;8.13;5.55;;;2.80;99.90;;;;;;5024324;28;20056;-37
2024/02/18 00:23:31;;;;;;;6.15;4.25;;;3.00;99.90;;;;;;5022528;28;20029;-34
2024/02/18 00:25:57;;;;;;;6.80;4.13;;;3.10;99.90;;;;;;5019775;28;20103;-33
2024/02/18 00:28:22;;;;;;;6.50;4.57;;;3.20;99.90;;;;;;5017791;28;20084;-34
2024/02/18 00:30:51;;;;;;;4.93;3.95;;;3.20;99.90;;;;;;5018801;28;20345;-36
2024/02/18 00:33:18;;;;;;;7.95;3.90;;;3.30;99.90;;;;;;5017846;28;20671;-40
2024/02/18 00:35:44;;;;;;;6.93;3.83;;;3.40;99.90;;;;;;5004115;28;20038;-42
2024/02/18 00:38:09;;;;;;;5.32;3.10;;;3.40;99.90;;;;;;5019429;28;20034;-42
2024/02/18 00:40:35;;;;;;;5.03;3.50;;;3.40;99.90;;;;;;5020983;28;20033;-39
2024/02/18 00:43:01;;;;;;;6.28;3.58;;;3.40;99.90;;;;;;5020990;28;20479;-42
2024/02/18 00:45:26;;;;;;;4.22;3.45;;;3.50;99.90;;;;;;5016604;28;20117;-41
2024/02/18 00:47:52;;;;;;;4.40;2.97;;;3.40;99.90;;;;;;5022441;28;20029;-36
2024/02/18 00:50:17;;;;;;;5.60;3.20;;;3.40;99.90;;;;;;5015753;28;20460;-40
2024/02/18 00:52:43;;;;;;;6.30;3.45;;;3.40;99.90;;;;;;5008615;28;20455;-42
2024/02/18 00:55:09;;;;;;;4.50;3.22;;;3.40;99.90;;;;;;5016237;28;20044;-42
2024/02/18 00:57:35;;;;;;;6.75;3.40;;;3.40;99.90;;;;;;4997467;28;20821;-42
2024/02/18 01:00:00;;;;;;;4.15;3.38;;;3.40;99.90;;;;;;5016487;28;20082;-40
2024/02/18 01:02:30;;;;;;;9.85;3.90;;;3.30;99.90;;;;;;5015840;28;20130;-40
2024/02/18 01:04:59;;;;;;;6.50;3.47;;;3.30;99.90;;;;;;5013368;28;20033;-39
2024/02/18 01:07:25;;;;;;;5.40;3.50;;;3.30;99.90;;;;;;5015328;28;20033;-40
2024/02/18 01:09:51;;;;;;;4.50;3.53;;;3.20;99.90;;;;;;5019281;28;20422;-39
2024/02/18 01:12:17;;;;;;;5.85;3.75;;;3.20;99.90;;;;;;5017308;28;20029;-38
2024/02/18 01:14:43;;;;;;;7.22;4.28;;;3.20;99.90;;;;;;5007265;28;20388;-40
2024/02/18 01:17:09;;;;;;;5.85;3.85;;;3.20;99.90;;;;;;5006178;28;20029;-40
2024/02/18 01:19:36;;;;;;;4.90;3.83;;;3.20;99.90;;;;;;5017107;28;20029;-41
2024/02/18 01:22:02;;;;;;;3.47;3.17;;;3.20;99.90;;;;;;5008760;28;20034;-40
2024/02/18 01:24:27;;;;;;;22.75;4.25;;;3.10;99.90;;;;;;5017487;28;20049;-42
2024/02/18 01:26:53;;;;;;;70.55;6.18;;;2.50;99.90;;;;;;5016067;28;20419;-38
2024/02/18 01:29:19;;;;;;;6.10;4.45;;;2.00;99.90;;;;;;5012845;28;20430;-41
2024/02/18 01:31:44;;;;;;;5.43;3.67;;;2.10;99.90;;;;;;4999357;28;20056;-37
2024/02/18 01:34:10;;;;;;;7.50;4.35;;;2.30;99.90;;;;;;5019802;28;20032;-39
2024/02/18 01:36:35;;;;;;;5.22;4.18;;;2.40;99.90;;;;;;5019855;28;20041;-39
2024/02/18 01:39:01;;;;;;;5.88;4.05;;;2.50;99.90;;;;;;5021101;28;20056;-34
2024/02/18 01:41:27;;;;;;;7.03;3.50;;;2.50;99.90;;;;;;5022020;28;20040;-37
2024/02/18 01:43:53;;;;;;;5.25;3.50;;;2.60;99.90;;;;;;5020643;28;20544;-38
2024/02/18 01:46:20;;;;;;;5.00;4.20;;;2.60;99.90;;;;;;5020869;28;20049;-40
2024/02/18 01:48:49;;;;;;;5.15;4.15;;;2.60;99.90;;;;;;5019825;28;20041;-37
2024/02/18 01:51:15;;;;;;;5.45;3.95;;;2.60;99.90;;;;;;5028371;28;20081;-37
2024/02/18 01:53:42;;;;;;;4.35;3.65;;;2.60;99.90;;;;;;5024552;28;20098;-37
2024/02/18 01:56:09;;;;;;;4.65;3.50;;;2.60;99.90;;;;;;5016979;28;20045;-38
2024/02/18 01:58:35;;;;;;;3.95;3.25;;;2.60;99.90;;;;;;5026844;28;20021;-35
2024/02/18 02:01:01;;;;;;;4.40;3.28;;;2.50;99.90;;;;;;5020849;28;20250;-34
2024/02/18 02:03:28;;;;;;;5.32;3.67;;;2.40;99.90;;;;;;5027110;28;20025;-37
2024/02/18 02:05:54;;;;;;;4.75;3.60;;;2.40;99.90;;;;;;5027470;28;20048;-36
2024/02/18 02:08:22;;;;;;;5.22;3.53;;;2.40;99.90;;;;;;5023931;28;20156;-37
2024/02/18 02:10:50;;;;;;;5.95;3.97;;;2.50;99.90;;;;;;5030774;28;20403;-39
2024/02/18 02:13:15;;;;;;;5.97;4.38;;;2.50;99.90;;;;;;5022800;28;20037;-34
2024/02/18 02:15:41;;;;;;;5.68;3.88;;;2.50;99.90;;;;;;5020883;28;20025;-39
2024/02/18 02:18:07;;;;;;;5.60;4.03;;;2.50;99.90;;;;;;5041139;28;20028;-37
2024/02/18 02:20:32;;;;;;;5.72;3.53;;;2.60;99.90;;;;;;5026846;28;20730;-37
2024/02/18 02:22:58;;;;;;;6.00;3.85;;;2.60;99.90;;;;;;5024979;28;20517;-35
2024/02/18 02:25:24;;;;;;;4.82;3.95;;;2.60;99.90;;;;;;5029206;28;20037;-34
2024/02/18 02:28:01;;;;;;;2.88;2.65;;;2.50;99.90;;;;;;5027265;28;20030;-39
2024/02/18 02:30:27;;;;;;;6.50;3.65;;;2.00;99.90;;;;;;5024524;28;20025;-43
2024/02/18 02:32:52;;;;;;;7.85;4.13;;;1.60;99.90;;;;;;5023464;28;20038;-38
2024/02/18 02:35:18;;;;;;;9.50;5.28;;;1.70;99.90;;;;;;5030373;28;20037;-39
2024/02/18 02:37:44;;;;;;;6.10;3.38;;;1.80;99.90;;;;;;5030511;28;20017;-42
2024/02/18 02:40:10;;;;;;;5.18;3.88;;;1.80;99.90;;;;;;5021696;28;20033;-41
2024/02/18 02:42:36;;;;;;;15.07;5.05;;;1.70;99.90;;;;;;5021239;28;20628;-40
2024/02/18 02:45:02;;;;;;;12.73;5.38;;;1.60;99.90;;;;;;5019812;28;20026;-42
2024/02/18 02:47:27;;;;;;;9.68;4.35;;;1.60;99.90;;;;;;5020389;28;20286;-42
2024/02/18 02:49:53;;;;;;;8.40;4.45;;;1.80;99.90;;;;;;5023724;28;20048;-39
2024/02/18 02:52:19;;;;;;;8.65;4.30;;;1.90;99.90;;;;;;5025875;28;20030;-38
2024/02/18 02:54:44;;;;;;;7.68;4.20;;;1.90;99.90;;;;;;5023403;28;20731;-36
2024/02/18 02:57:12;;;;;;;5.47;3.95;;;2.00;99.90;;;;;;5025767;28;20156;-37
2024/02/18 02:59:38;;;;;;;7.80;5.95;;;1.90;99.90;;;;;;5023971;28;20103;-34
2024/02/18 03:02:04;;;;;;;8.02;4.35;;;1.90;99.90;;;;;;5026528;28;20029;-37
2024/02/18 03:04:29;;;;;;;10.57;5.20;;;1.80;99.90;;;;;;5022402;28;20448;-37
2024/02/18 03:06:55;;;;;;;6.05;4.07;;;1.90;99.90;;;;;;5017916;28;20033;-37
2024/02/18 03:12:43;;;;;;;6.50;4.40;;;2.00;99.90;;;;;;5021024;28;20083;-33
2024/02/18 03:15:08;;;;;;;5.72;3.80;;;2.10;99.90;;;;;;5021406;28;20044;-37
2024/02/18 03:17:35;;;;;;;9.25;3.70;;;2.00;99.90;;;;;;5023657;28;20021;-38
2024/02/18 03:20:01;;;;;;;6.43;3.25;;;1.80;99.90;;;;;;5017582;28;20033;-36
2024/02/18 03:22:26;;;;;;;7.30;3.72;;;1.80;99.90;;;;;;5019112;28;20037;-37
2024/02/18 03:24:52;;;;;;;15.90;4.97;;;1.80;99.90;;;;;;5022305;28;20032;-37
2024/02/18 03:27:18;;;;;;;7.57;5.45;;;1.60;99.90;;;;;;5014189;28;20061;-35
2024/02/18 03:29:44;;;;;;;8.90;4.82;;;1.60;99.90;;;;;;5020360;28;20043;-35
2024/02/18 03:32:10;;;;;;;6.68;4.70;;;1.80;99.90;;;;;;5025429;28;20410;-35
2024/02/18 03:34:36;;;;;;;6.35;4.93;;;1.90;99.90;;;;;;5025619;28;20029;-38
2024/02/18 03:37:02;;;;;;;9.75;5.05;;;1.90;99.90;;;;;;5022782;28;20033;-35
2024/02/18 03:39:28;;;;;;;8.95;5.40;;;2.00;99.90;;;;;;5018436;28;20510;-36
2024/02/18 03:41:53;;;;;;;9.85;5.55;;;2.10;99.90;;;;;;5014958;28;20049;-41
2024/02/18 03:44:19;;;;;;;9.65;4.80;;;2.10;99.90;;;;;;5023111;28;20128;-40
2024/02/18 03:46:45;;;;;;;6.70;3.90;;;2.10;99.90;;;;;;5027916;28;20107;-37
2024/02/18 03:49:11;;;;;;;7.82;3.90;;;2.10;99.90;;;;;;5025873;28;20053;-40
2024/02/18 03:51:37;;;;;;;6.45;3.60;;;1.80;99.90;;;;;;5022119;28;20045;-40
2024/02/18 03:54:03;;;;;;;6.20;3.47;;;1.60;99.90;;;;;;5025948;28;20044;-39
2024/02/18 03:56:33;;;;;;;6.07;4.70;;;1.50;99.90;;;;;;5018373;28;20050;-40
2024/02/18 03:58:58;;;;;;;5.25;3.65;;;1.30;99.90;;;;;;5023076;28;20559;-42
2024/02/18 04:01:24;;;;;;;4.40;3.50;;;1.50;99.90;;;;;;5023874;28;20172;-41
2024/02/18 04:03:49;;;;;;;10.73;4.78;;;1.60;99.90;;;;;;5022683;28;20748;-38
2024/02/18 04:06:15;;;;;;;2.55;2.05;;;1.60;99.90;;;;;;5024094;28;20033;-39
2024/02/18 04:08:41;;;;;;;5.93;4.97;;;1.50;99.90;;;;;;5023660;28;20108;-39
2024/02/18 04:11:06;;;;;;;4.78;3.67;;;1.50;99.90;;;;;;5021045;28;20029;-40
2024/02/18 04:13:32;;;;;;;7.63;4.13;;;1.70;99.90;;;;;;5018895;28;20032;-41
2024/02/18 04:15:57;;;;;;;7.05;5.65;;;1.80;99.90;;;;;;5022772;28;20052;-40
2024/02/18 04:18:23;;;;;;;7.55;5.85;;;1.90;99.90;;;;;;5025173;28;20045;-36
2024/02/18 04:20:51;;;;;;;6.93;5.03;;;1.90;99.90;;;;;;5026231;28;20022;-37
2024/02/18 04:23:17;;;;;;;8.05;5.07;;;2.00;99.90;;;;;;5018582;28;22186;-39
2024/02/18 04:25:42;;;;;;;5.65;3.70;;;2.10;99.90;;;;;;5024433;28;20060;-41
2024/02/18 04:28:08;;;;;;;7.13;4.38;;;2.10;99.90;;;;;;5002831;28;20034;-36
2024/02/18 04:30:33;;;;;;;6.22;4.15;;;2.20;99.90;;;;;;5019173;28;20037;-42
2024/02/18 04:32:59;;;;;;;7.25;4.80;;;2.20;99.90;;;;;;5021921;28;20029;-36
2024/02/18 04:35:25;;;;;;;5.72;3.92;;;2.20;99.90;;;;;;5023307;28;20041;-42
2024/02/18 04:37:50;;;;;;;13.73;5.75;;;2.20;99.90;;;;;;5025151;28;20496;-39
2024/02/18 04:40:16;;;;;;;5.90;4.03;;;2.20;99.90;;;;;;5027685;28;20450;-41
2024/02/18 04:42:41;;;;;;;10.93;4.13;;;2.20;99.90;;;;;;5019663;28;20049;-40
2024/02/18 04:45:07;;;;;;;9.10;5.45;;;2.20;99.90;;;;;;5019256;28;20033;-38
2024/02/18 04:47:33;;;;;;;7.78;4.75;;;2.20;99.90;;;;;;5024077;28;20431;-41
2024/02/18 04:50:03;;;;;;;6.53;4.90;;;2.10;99.90;;;;;;5020522;28;20056;-40
2024/02/18 04:52:30;;;;;;;9.20;5.20;;;2.00;99.90;;;;;;5022005;28;20082;-36
2024/02/18 04:54:55;;;;;;;6.43;4.55;;;1.90;99.90;;;;;;5021195;28;20060;-40
2024/02/18 04:57:21;;;;;;;8.40;5.18;;;2.00;99.90;;;;;;5023913;28;20033;-41
2024/02/18 04:59:47;;;;;;;7.47;5.55;;;2.00;99.90;;;;;;5023429;28;20028;-41
2024/02/18 05:02:12;;;;;;;11.43;5.43;;;2.00;99.90;;;;;;5002251;28;20017;-38
2024/02/18 05:04:38;;;;;;;14.75;7.90;;;2.00;99.90;;;;;;5025497;28;20438;-42
2024/02/18 05:07:04;;;;;;;19.25;10.52;;;2.00;99.90;;;;;;5024111;28;20028;-42
2024/02/18 05:09:30;;;;;;;23.95;12.55;;;2.10;99.90;;;;;;5016756;28;20029;-42
2024/02/18 05:11:55;;;;;;;14.32;8.68;;;2.10;99.90;;;;;;5027287;28;20029;-41
2024/02/18 05:14:21;;;;;;;13.13;6.68;;;2.10;99.90;;;;;;5029225;28;20044;-41
2024/02/18 05:16:46;;;;;;;6.93;4.40;;;2.00;99.90;;;;;;5024130;28;20021;-40
2024/02/18 05:19:12;;;;;;;7.30;4.85;;;2.10;99.90;;;;;;5004640;28;20033;-39
2024/02/18 05:21:39;;;;;;;10.13;5.88;;;2.10;99.90;;;;;;5026331;28;20057;-42
2024/02/18 05:24:05;;;;;;;8.40;4.95;;;2.10;99.90;;;;;;5026130;28;20034;-38
2024/02/18 05:26:31;;;;;;;9.68;5.28;;;2.20;99.90;;;;;;5025382;28;22286;-40
2024/02/18 05:28:57;;;;;;;10.13;5.28;;;2.20;99.90;;;;;;5023830;28;20109;-39
2024/02/18 05:31:27;;;;;;;8.50;5.45;;;2.10;99.90;;;;;;5024961;28;20065;-40
2024/02/18 05:33:53;;;;;;;9.93;5.32;;;2.20;99.90;;;;;;5028135;28;20471;-38
2024/02/18 05:36:20;;;;;;;8.57;5.22;;;2.20;99.90;;;;;;5026621;28;20042;-41
2024/02/18 05:38:46;;;;;;;7.10;4.43;;;2.30;99.90;;;;;;5022580;28;20667;-41
2024/02/18 05:41:12;;;;;;;8.65;5.32;;;2.30;99.90;;;;;;5020168;28;20029;-42
2024/02/18 05:43:38;;;;;;;8.68;4.35;;;2.30;99.90;;;;;;5022824;28;20049;-42
2024/02/18 05:46:06;;;;;;;7.45;4.28;;;2.30;99.90;;;;;;5023699;28;20041;-41
2024/02/18 05:48:31;;;;;;;8.20;4.53;;;2.30;99.90;;;;;;5026956;28;20107;-41
2024/02/18 05:50:57;;;;;;;7.78;4.07;;;2.30;99.90;;;;;;5024597;28;20472;-40
2024/02/18 05:53:24;;;;;;;8.07;5.40;;;2.30;99.90;;;;;;5022216;28;20029;-42
2024/02/18 05:55:49;;;;;;;8.93;5.15;;;2.40;99.90;;;;;;5026681;28;20018;-40
2024/02/18 05:58:16;;;;;;;8.30;4.97;;;2.30;99.90;;;;;;5023129;28;20056;-40
2024/02/18 06:00:42;;;;;;;7.25;4.65;;;2.30;99.90;;;;;;5020623;28;20033;-36
2024/02/18 06:03:08;;;;;;;7.43;5.10;;;2.40;99.90;;;;;;5028350;28;20260;-37
2024/02/18 06:05:34;;;;;;;5.47;4.80;;;2.40;99.90;;;;;;5029168;28;20033;-36
2024/02/18 06:07:59;;;;;;;8.25;5.55;;;2.40;99.90;;;;;;5022375;28;20030;-39
2024/02/18 06:10:25;;;;;;;8.38;4.65;;;2.40;99.90;;;;;;5031624;28;20040;-37
2024/02/18 06:12:51;;;;;;;11.20;5.55;;;2.40;99.90;;;;;;5023866;28;20494;-39
2024/02/18 06:15:16;;;;;;;9.68;5.43;;;2.40;99.90;;;;;;5025654;28;20130;-37
2024/02/18 06:17:42;;;;;;;8.35;5.22;;;2.40;99.90;;;;;;5024110;28;20033;-36
2024/02/18 06:20:12;;;;;;;9.20;5.65;;;2.50;99.90;;;;;;5021981;28;20709;-35
2024/02/18 06:22:38;;;;;;;9.18;4.55;;;2.50;99.90;;;;;;5025202;28;20176;-38
2024/02/18 06:25:05;;;;;;;10.48;4.97;;;2.50;99.90;;;;;;5021441;28;20037;-41
2024/02/18 06:27:31;;;;;;;7.20;4.70;;;2.50;99.90;;;;;;5003171;28;20041;-38
2024/02/18 06:29:58;;;;;;;8.18;4.47;;;2.50;99.90;;;;;;5022579;28;20022;-40
2024/02/18 06:32:25;;;;;;;8.38;4.90;;;2.50;99.90;;;;;;5023728;28;20032;-41
2024/02/18 06:34:50;;;;;;;7.97;4.97;;;2.50;99.90;;;;;;5022860;28;22210;-39
2024/02/18 06:37:16;;;;;;;10.25;4.70;;;2.50;99.90;;;;;;5029695;28;20025;-40
2024/02/18 06:39:41;;;;;;;7.30;4.70;;;2.50;99.90;;;;;;5022481;28;20095;-39
2024/02/18 06:42:08;;;;;;;9.43;5.40;;;2.50;99.90;;;;;;5022770;28;20579;-40
2024/02/18 06:44:33;;;;;;;7.07;4.47;;;2.50;99.90;;;;;;5028275;28;20589;-40
2024/02/18 06:46:59;;;;;;;6.00;4.03;;;2.40;99.90;;;;;;5026903;28;20033;-39
2024/02/18 06:49:24;;;;;;;4.47;2.78;;;2.30;99.90;;;;;;5025181;28;20037;-41
2024/02/18 06:51:50;;;;;;;7.20;4.38;;;2.10;99.90;;;;;;5025150;28;20528;-39
2024/02/18 06:54:16;;;;;;;6.07;4.35;;;2.20;99.90;;;;;;5024827;28;20038;-38
2024/02/18 06:56:41;;;;;;;6.85;4.68;;;2.20;99.90;;;;;;5024083;28;20025;-40
2024/02/18 06:59:07;;;;;;;5.72;4.97;;;2.20;99.90;;;;;;5021185;28;20057;-41
2024/02/18 07:01:33;;;;;;;5.53;4.38;;;2.20;99.90;;;;;;5023570;28;20434;-40
2024/02/18 07:04:00;;;;;;;7.65;4.65;;;2.20;99.90;;;;;;5020951;28;20040;-42
2024/02/18 07:06:25;;;;;;;5.30;4.80;;;2.30;99.90;;;;;;5027283;28;20034;-38
2024/02/18 07:08:51;;;;;;;7.60;4.43;;;2.30;99.90;;;;;;5020142;28;22151;-40
2024/02/18 07:11:16;;;;;;;7.70;5.43;;;2.30;99.90;;;;;;5019704;28;20037;-41
2024/02/18 07:13:42;;;;;;;5.90;4.22;;;2.30;99.90;;;;;;5022405;28;20029;-40
2024/02/18 07:16:08;;;;;;;6.40;4.88;;;2.40;99.90;;;;;;5022514;28;20084;-40
2024/02/18 07:18:34;;;;;;;8.30;5.22;;;2.40;99.90;;;;;;5029609;28;20025;-41
2024/02/18 07:20:59;;;;;;;8.13;5.75;;;2.50;99.90;;;;;;5025891;28;20202;-39
2024/02/18 07:23:25;;;;;;;10.00;5.43;;;2.50;99.90;;;;;;5028523;28;20030;-39
2024/02/18 07:25:50;;;;;;;9.32;5.35;;;2.50;99.90;;;;;;5024719;28;20057;-39
2024/02/18 07:28:16;;;;;;;6.95;4.80;;;2.60;99.90;;;;;;5023863;28;20026;-40
2024/02/18 07:30:42;;;;;;;6.40;4.88;;;2.60;99.90;;;;;;5003031;28;20072;-40
2024/02/18 07:33:10;;;;;;;8.43;6.03;;;2.60;99.90;;;;;;5021318;28;20609;-42
2024/02/18 07:35:35;;;;;;;10.20;5.90;;;2.60;99.90;;;;;;5027947;28;20052;-38
2024/02/18 07:38:01;;;;;;;8.25;5.13;;;2.60;99.90;;;;;;5006999;28;20030;-42
2024/02/18 07:40:27;;;;;;;7.55;5.22;;;2.60;99.90;;;;;;5020859;28;20144;-41
2024/02/18 07:42:52;;;;;;;8.60;5.47;;;2.60;99.90;;;;;;5033205;28;20108;-38
2024/02/18 07:45:18;;;;;;;7.53;5.00;;;2.60;99.90;;;;;;5021763;28;20029;-37
2024/02/18 07:47:44;;;;;;;7.78;4.75;;;2.60;99.90;;;;;;5026247;28;20030;-41
2024/02/18 07:50:10;;;;;;;9.85;5.88;;;2.60;99.90;;;;;;5024249;28;20044;-36
2024/02/18 07:52:35;;;;;;;9.15;5.70;;;2.70;99.90;;;;;;5025903;28;20029;-40
2024/02/18 07:55:01;;;;;;;6.68;4.85;;;2.70;99.90;;;;;;5011763;28;20041;-41
2024/02/18 07:57:27;;;;;;;6.72;4.63;;;2.80;99.90;;;;;;5026252;28;20121;-41
2024/02/18 07:59:53;;;;;;;7.93;5.25;;;2.90;99.90;;;;;;5025153;28;20652;-40
2024/02/18 08:02:18;;;;;;;7.43;4.55;;;3.00;99.90;;;;;;5018182;28;20029;-41
2024/02/18 08:04:44;;;;;;;5.88;4.85;;;3.00;99.90;;;;;;5021910;28;20387;-41
2024/02/18 08:07:10;;;;;;;6.63;5.47;;;3.10;99.90;;;;;;5023475;28;20036;-40
2024/02/18 08:09:35;;;;;;;17.73;5.93;;;3.20;99.90;;;;;;5020199;28;20106;-40
2024/02/18 08:12:01;;;;;;;8.85;5.82;;;3.30;99.90;;;;;;5021528;28;20037;-38
2024/02/18 08:14:27;;;;;;;10.10;5.90;;;3.30;99.90;;;;;;5019666;28;20040;-40
2024/02/18 08:16:53;;;;;;;7.13;5.10;;;3.40;99.90;;;;;;5023648;28;20025;-38
2024/02/18 08:19:19;;;;;;;8.18;5.18;;;3.50;99.90;;;;;;5023287;28;20437;-39
2024/02/18 08:21:44;;;;;;;10.73;6.00;;;3.60;99.90;;;;;;5022964;28;20026;-41
2024/02/18 08:24:10;;;;;;;10.65;6.10;;;3.70;99.90;;;;;;5024437;28;20033;-42
2024/02/18 08:26:36;;;;;;;14.52;6.25;;;3.80;99.90;;;;;;5024051;28;20032;-39
2024/02/18 08:29:01;;;;;;;9.82;6.35;;;3.80;99.90;;;;;;5020634;28;20035;-42
2024/02/18 08:31:27;;;;;;;10.73;5.32;;;4.00;99.90;;;;;;5018468;28;20036;-39
2024/02/18 08:33:52;;;;;;;9.70;6.07;;;4.10;99.90;;;;;;5023736;28;20722;-39
2024/02/18 08:36:18;;;;;;;11.00;6.50;;;4.30;99.90;;;;;;5018837;28;20103;-41
2024/02/18 08:38:44;;;;;;;7.97;5.28;;;4.40;99.90;;;;;;5025271;28;20036;-43
2024/02/18 08:41:11;;;;;;;11.95;6.10;;;4.50;99.90;;;;;;5007874;28;20122;-33
2024/02/18 08:43:43;;;;;;;14.57;7.93;;;4.60;99.90;;;;;;5031605;28;20021;-35
2024/02/18 08:46:09;;;;;;;13.40;8.75;;;4.70;99.90;;;;;;5028772;28;20041;-33
2024/02/18 08:48:36;;;;;;;14.00;8.18;;;4.90;99.90;;;;;;5032575;28;20399;-33
2024/02/18 08:51:02;;;;;;;13.90;8.50;;;5.00;99.90;;;;;;5028039;28;20033;-32
2024/02/18 08:53:28;;;;;;;16.85;9.57;;;5.20;99.90;;;;;;5034974;28;20523;-33
2024/02/18 08:55:54;;;;;;;18.08;9.60;;;5.30;99.90;;;;;;5030940;28;20029;-33
2024/02/18 08:58:19;;;;;;;22.90;10.18;;;5.40;99.90;;;;;;5032237;28;20028;-33
2024/02/18 09:00:47;;;;;;;20.75;9.75;;;5.50;99.90;;;;;;5033438;28;20053;-35
2024/02/18 09:03:13;;;;;;;18.63;10.43;;;5.70;99.90;;;;;;5047236;28;20024;-35
2024/02/18 09:05:39;;;;;;;23.15;10.63;;;5.80;99.90;;;;;;5031902;28;20033;-32
2024/02/18 09:08:05;;;;;;;21.20;10.82;;;5.90;99.90;;;;;;5028819;28;20068;-35
2024/02/18 09:10:31;;;;;;;19.15;11.10;;;6.10;99.90;;;;;;5027474;28;20037;-33
2024/02/18 09:13:00;;;;;;;19.27;10.25;;;6.30;99.90;;;;;;5028342;28;20539;-34
2024/02/18 09:15:27;;;;;;;24.27;11.63;;;6.40;99.90;;;;;;5011726;28;20036;-33
2024/02/18 09:17:52;;;;;;;23.83;11.80;;;6.60;99.90;;;;;;5018502;28;20732;-33
2024/02/18 09:20:18;;;;;;;23.65;11.50;;;6.70;99.90;;;;;;5023098;28;20057;-32
2024/02/18 09:22:43;;;;;;;20.88;10.30;;;6.80;99.90;;;;;;5023285;28;20025;-33
2024/02/18 09:25:09;;;;;;;23.50;11.93;;;6.90;99.90;;;;;;5005668;28;20502;-32
2024/02/18 09:27:35;;;;;;;22.70;11.00;;;7.00;99.90;;;;;;5008042;28;20029;-36
2024/02/18 09:30:01;;;;;;;20.52;11.57;;;7.20;99.90;;;;;;5030990;28;20033;-33
2024/02/18 09:32:26;;;;;;;21.15;10.02;;;7.30;99.90;;;;;;5022457;28;20429;-34
2024/02/18 09:34:52;;;;;;;22.80;11.32;;;7.40;99.90;;;;;;5023501;28;20050;-36
2024/02/18 09:37:18;;;;;;;19.63;11.10;;;7.50;99.90;;;;;;5028687;28;20374;-33
2024/02/18 09:39:43;;;;;;;18.70;10.73;;;7.70;99.90;;;;;;5024368;28;20025;-32
2024/02/18 09:42:10;;;;;;;18.85;10.50;;;7.80;99.90;;;;;;5034096;28;20068;-33
2024/02/18 09:44:38;;;;;;;15.80;9.93;;;8.00;99.90;;;;;;5027430;28;20328;-35
2024/02/18 09:47:06;;;;;;;19.73;10.13;;;8.00;99.90;;;;;;5027981;28;20029;-36
2024/02/18 09:49:34;;;;;;;18.75;10.38;;;8.20;99.90;;;;;;5028843;28;20029;-35
2024/02/18 09:51:59;;;;;;;12.93;8.18;;;8.40;99.90;;;;;;5033435;28;20029;-39
2024/02/18 09:54:29;;;;;;;18.27;9.25;;;8.60;99.90;;;;;;5027639;28;20380;-38
2024/02/18 09:56:54;;;;;;;18.50;9.32;;;8.70;99.90;;;;;;5032992;28;20025;-38
2024/02/18 09:59:22;;;;;;;16.98;8.85;;;8.90;99.90;;;;;;5033076;28;20067;-34
2024/02/18 10:01:53;;;;;;;15.25;8.70;;;9.00;99.90;;;;;;5033797;28;20071;-33
2024/02/18 10:04:19;;;;;;;12.25;5.93;;;9.20;99.90;;;;;;5031431;28;20556;-32
2024/02/18 10:06:45;;;;;;;7.95;5.00;;;9.30;99.90;;;;;;5027422;28;20034;-34
2024/02/18 10:09:10;;;;;;;13.52;5.82;;;9.50;99.90;;;;;;5023087;28;20041;-36
2024/02/18 10:11:36;;;;;;;8.90;5.13;;;9.70;99.90;;;;;;5024073;28;20693;-32
2024/02/18 10:14:04;;;;;;;7.72;4.03;;;9.80;99.90;;;;;;5023564;28;20555;-32
2024/02/18 10:16:29;;;;;;;10.13;5.45;;;10.00;99.90;;;;;;5025903;28;20499;-33
2024/02/18 10:18:55;;;;;;;7.75;4.38;;;10.00;99.90;;;;;;5024502;28;20098;-37
2024/02/18 10:21:21;;;;;;;8.45;4.80;;;10.10;99.90;;;;;;5022783;28;20033;-33
2024/02/18 10:23:47;;;;;;;10.35;4.18;;;10.30;99.90;;;;;;5020539;28;20018;-33
2024/02/18 10:26:12;;;;;;;8.43;4.95;;;10.30;99.90;;;;;;5021458;28;20044;-37
2024/02/18 10:28:39;;;;;;;8.98;4.85;;;10.30;99.90;;;;;;5022539;28;20033;-34
2024/02/18 10:31:07;;;;;;;9.57;4.30;;;10.40;99.90;;;;;;5020546;28;20037;-33
2024/02/18 10:33:33;;;;;;;6.68;4.15;;;10.40;99.90;;;;;;5024115;28;20053;-32
2024/02/18 10:36:06;;;;;;;5.63;3.08;;;10.50;99.90;;;;;;5030501;28;20487;-33
2024/02/18 10:38:33;;;;;;;6.68;4.28;;;10.80;99.90;;;;;;5024877;28;20052;-32
2024/02/18 10:41:07;;;;;;;6.73;4.37;;;10.80;99.90;;;;;;5022847;28;20467;-32
2024/02/18 10:43:41;;;;;;;7.65;4.78;;;10.70;99.90;;;;;;5023041;28;20736;-32
2024/02/18 10:46:07;;;;;;;5.90;4.13;;;10.80;99.90;;;;;;5012400;28;20080;-37
2024/02/18 10:48:36;;;;;;;7.63;5.00;;;10.80;99.90;;;;;;5020278;28;20045;-36
2024/02/18 10:51:04;;;;;;;7.60;4.55;;;10.90;99.90;;;;;;5021862;28;20037;-35
2024/02/18 10:53:33;;;;;;;9.18;4.57;;;11.00;99.90;;;;;;5024154;28;20029;-34
2024/02/18 10:56:04;;;;;;;6.82;4.32;;;11.00;99.90;;;;;;5022207;28;20729;-33
2024/02/18 10:58:41;;;;;;;6.43;4.03;;;11.10;99.90;;;;;;5020414;28;20026;-35
2024/02/18 11:01:10;;;;;;;8.52;5.15;;;11.10;99.90;;;;;;5015609;28;20075;-42
2024/02/18 11:03:41;;;;;;;7.55;4.20;;;11.10;99.90;;;;;;5020014;28;20021;-38
2024/02/18 11:06:07;;;;;;;9.27;4.28;;;11.00;99.90;;;;;;5020805;28;20523;-40
2024/02/18 11:08:35;;;;;;;9.38;5.20;;;11.00;99.90;;;;;;5024288;28;20171;-42
2024/02/18 11:11:02;;;;;;;8.23;4.95;;;11.00;99.90;;;;;;5021816;28;20025;-39
2024/02/18 11:13:30;;;;;;;7.43;5.00;;;11.00;99.90;;;;;;5027342;28;20041;-42
2024/02/18 11:15:56;;;;;;;7.50;4.93;;;10.90;99.90;;;;;;5018351;28;20025;-38
2024/02/18 11:18:23;;;;;;;9.75;6.00;;;10.90;99.90;;;;;;5017644;28;20116;-38
2024/02/18 11:20:49;;;;;;;8.98;5.60;;;11.00;99.90;;;;;;5022688;28;20030;-32
2024/02/18 11:23:15;;;;;;;9.45;5.22;;;11.00;99.90;;;;;;5029490;28;20029;-38
2024/02/18 11:25:42;;;;;;;7.65;4.30;;;11.00;99.90;;;;;;5023028;28;20034;-38
2024/02/18 11:28:09;;;;;;;7.18;4.72;;;11.00;99.90;;;;;;5022451;28;20508;-39
2024/02/18 11:30:36;;;;;;;7.32;4.78;;;11.10;99.90;;;;;;5021030;28;20383;-36
2024/02/18 11:33:02;;;;;;;7.25;4.88;;;11.20;99.90;;;;;;5019715;28;20075;-38
2024/02/18 11:35:28;;;;;;;9.88;5.07;;;11.30;99.90;;;;;;5018839;28;20071;-37
2024/02/18 11:37:57;;;;;;;8.93;4.63;;;11.30;99.90;;;;;;5020973;28;20021;-35
2024/02/18 11:40:23;;;;;;;7.82;4.53;;;11.20;99.90;;;;;;5021121;28;20079;-37
2024/02/18 11:42:49;;;;;;;10.05;4.55;;;11.30;99.90;;;;;;5019791;28;20561;-34
2024/02/18 11:45:23;;;;;;;9.73;4.97;;;11.40;99.90;;;;;;5024895;28;20037;-38
2024/02/18 11:47:51;;;;;;;8.35;4.50;;;11.40;99.90;;;;;;5020809;28;20112;-33
2024/02/18 11:50:18;;;;;;;8.88;4.88;;;11.40;99.90;;;;;;5020666;28;20033;-33
2024/02/18 11:52:48;;;;;;;9.20;4.93;;;11.40;99.90;;;;;;5020746;28;20030;-36
2024/02/18 11:55:15;;;;;;;7.22;4.05;;;11.40;99.90;;;;;;5020611;28;20029;-40
2024/02/18 11:57:41;;;;;;;7.60;5.10;;;11.40;99.90;;;;;;5019613;28;20021;-34
2024/02/18 12:00:16;;;;;;;7.47;4.70;;;11.40;99.90;;;;;;5026006;28;20034;-32
2024/02/18 12:02:50;;;;;;;12.55;4.75;;;11.40;99.90;;;;;;5017521;28;20018;-32
2024/02/18 12:05:17;;;;;;;7.55;4.28;;;11.50;99.90;;;;;;5019478;28;20084;-35
2024/02/18 12:07:45;;;;;;;8.30;4.82;;;11.60;99.90;;;;;;5017319;28;20033;-38
2024/02/18 12:10:11;;;;;;;6.78;4.70;;;11.80;99.90;;;;;;5018290;28;20514;-34
2024/02/18 12:12:36;;;;;;;6.53;3.80;;;11.90;99.90;;;;;;5019714;28;20034;-35
2024/02/18 12:15:02;;;;;;;7.03;3.35;;;11.80;99.90;;;;;;5020957;28;20033;-33
2024/02/18 12:17:28;;;;;;;6.70;3.33;;;11.90;99.90;;;;;;5024416;28;20037;-34
2024/02/18 12:19:54;;;;;;;6.07;3.78;;;11.80;99.90;;;;;;5024885;28;20025;-34
2024/02/18 12:22:21;;;;;;;5.65;3.45;;;11.80;99.90;;;;;;5020428;28;20025;-35
2024/02/18 12:24:48;;;;;;;6.55;3.80;;;11.80;99.90;;;;;;5020304;28;20034;-37
2024/02/18 12:27:14;;;;;;;3.63;2.22;;;11.80;99.90;;;;;;5020071;28;20032;-37
2024/02/18 12:29:40;;;;;;;5.45;3.20;;;11.90;99.90;;;;;;5016921;28;20049;-35
2024/02/18 12:32:06;;;;;;;3.83;3.20;;;12.00;99.90;;;;;;5019671;28;20041;-34
2024/02/18 12:34:32;;;;;;;8.80;4.72;;;11.90;99.90;;;;;;5021947;28;20076;-39
2024/02/18 12:36:57;;;;;;;3.33;2.28;;;12.00;99.90;;;;;;5014656;28;20443;-33
2024/02/18 12:39:23;;;;;;;4.65;2.72;;;12.00;99.90;;;;;;5016160;28;20087;-32
2024/02/18 12:41:49;;;;;;;5.75;3.35;;;12.00;99.90;;;;;;5019856;28;20749;-34
2024/02/18 12:44:14;;;;;;;7.35;4.10;;;12.00;99.90;;;;;;5017098;28;20045;-33
2024/02/18 12:46:41;;;;;;;6.00;3.58;;;12.10;99.90;;;;;;5022483;28;20072;-33
2024/02/18 12:49:07;;;;;;;7.15;4.57;;;12.10;99.90;;;;;;5016872;28;20033;-33
2024/02/18 12:51:34;;;;;;;8.15;3.22;;;12.10;99.90;;;;;;5029128;28;20021;-33